createdAt,value
2018-02-05T00:03:05.338Z,-57
2018-02-05T00:13:05.370Z,-57
2018-02-05T00:23:05.421Z,-57
2018-02-05T00:33:05.352Z,-55
2018-02-05T00:43:05.444Z,-58
2018-02-05T00:53:05.361Z,-56
2018-02-05T01:03:05.419Z,-56
2018-02-05T01:13:05.438Z,-57
2018-02-05T01:23:05.535Z,-57
2018-02-05T01:33:05.497Z,-58
2018-02-05T01:43:05.370Z,-57
2018-02-05T01:53:05.454Z,-54
2018-02-05T02:03:05.401Z,-56
2018-02-05T02:13:05.441Z,-57
2018-02-05T02:23:05.452Z,-57
2018-02-05T02:33:05.512Z,-58
2018-02-05T02:43:05.423Z,-57
2018-02-05T02:53:05.525Z,-55
2018-02-05T03:03:05.642Z,-56
2018-02-05T03:13:05.434Z,-56
2018-02-05T03:23:05.443Z,-57
2018-02-05T03:33:05.453Z,-55
2018-02-05T03:43:05.537Z,-56
2018-02-05T03:53:05.451Z,-55
2018-02-05T04:03:05.569Z,-56
2018-02-05T04:13:05.526Z,-56
2018-02-05T04:23:05.545Z,-56
2018-02-05T04:33:05.485Z,-57
2018-02-05T04:43:05.625Z,-57
2018-02-05T04:53:05.536Z,-56
2018-02-05T05:03:05.513Z,-54
2018-02-05T05:13:05.598Z,-58
2018-02-05T05:23:05.539Z,-57
2018-02-05T05:33:05.545Z,-58
2018-02-05T05:43:06.765Z,-57
2018-02-05T05:53:05.597Z,-56
2018-02-05T06:03:05.609Z,-56
2018-02-05T06:13:05.707Z,-56
2018-02-05T06:23:05.552Z,-57
2018-02-05T06:33:05.532Z,-58
2018-02-05T06:43:05.521Z,-55
2018-02-05T06:53:05.563Z,-56
2018-02-05T07:03:05.697Z,-58
2018-02-05T07:13:05.664Z,-57
2018-02-05T07:23:05.657Z,-58
2018-02-05T07:33:05.644Z,-56
2018-02-05T07:43:06.013Z,-57
2018-02-05T07:53:05.655Z,-55
2018-02-05T08:03:05.713Z,-58
2018-02-05T08:13:05.647Z,-56
2018-02-05T08:23:05.598Z,-58
2018-02-05T08:33:05.715Z,-57
2018-02-05T08:43:05.706Z,-58
2018-02-05T08:53:06.241Z,-57
2018-02-05T09:03:06.607Z,-64
2018-02-05T09:13:05.997Z,-58
2018-02-05T09:23:05.872Z,-57
2018-02-05T09:33:05.867Z,-57
2018-02-05T09:43:05.752Z,-58
2018-02-05T09:53:05.850Z,-56
2018-02-05T10:03:05.764Z,-57
2018-02-05T10:13:05.978Z,-58
2018-02-05T10:23:05.853Z,-58
2018-02-05T10:33:05.801Z,-57
2018-02-05T10:43:05.988Z,-57
2018-02-05T10:53:05.745Z,-58
2018-02-05T11:03:05.869Z,-56
2018-02-05T11:13:05.751Z,-58
2018-02-05T11:23:06.019Z,-58
2018-02-05T11:33:05.784Z,-58
2018-02-05T11:43:05.929Z,-56
2018-02-05T11:53:05.841Z,-57
2018-02-05T12:03:06.045Z,-57
2018-02-05T12:13:05.911Z,-57
2018-02-05T12:23:06.352Z,-56
2018-02-05T12:33:05.995Z,-56
2018-02-05T12:43:06.000Z,-58
2018-02-05T12:53:05.945Z,-58
2018-02-05T13:03:05.971Z,-58
2018-02-05T13:13:05.965Z,-59
2018-02-05T13:23:06.033Z,-57
2018-02-05T13:33:06.037Z,-64
2018-02-05T13:43:06.481Z,-66
2018-02-05T13:53:05.969Z,-59
2018-02-05T14:03:05.947Z,-60
2018-02-05T14:13:05.947Z,-58
2018-02-05T14:23:06.014Z,-55
2018-02-05T14:33:06.023Z,-58
2018-02-05T14:43:06.052Z,-55
2018-02-05T14:53:06.099Z,-56
2018-02-05T15:03:05.997Z,-56
2018-02-05T15:13:06.413Z,-58
2018-02-05T15:23:06.201Z,-54
2018-02-05T15:33:06.087Z,-59
2018-02-05T15:43:06.065Z,-57
2018-02-05T15:53:06.096Z,-60
2018-02-05T16:03:06.351Z,-58
2018-02-05T16:13:08.449Z,-60
2018-02-05T16:23:06.172Z,-60
2018-02-05T16:33:06.065Z,-59
2018-02-05T16:43:06.064Z,-64
2018-02-05T16:53:08.082Z,-59
2018-02-05T17:03:06.346Z,-60
2018-02-05T17:13:06.125Z,-58
2018-02-05T17:23:07.081Z,-60
2018-02-05T17:33:06.460Z,-61
2018-02-05T17:43:06.515Z,-57
2018-02-05T17:53:06.144Z,-57
2018-02-05T18:03:06.187Z,-53
2018-02-05T18:13:06.524Z,-53
2018-02-05T18:23:06.253Z,-54
2018-02-05T18:33:06.525Z,-55
2018-02-05T18:43:06.878Z,-55
2018-02-05T18:53:06.265Z,-51
2018-02-05T19:03:06.453Z,-54
2018-02-05T19:13:06.315Z,-52
2018-02-05T19:23:06.361Z,-55
2018-02-05T19:33:06.209Z,-54
2018-02-05T19:43:06.208Z,-55
2018-02-05T19:53:06.646Z,-55
2018-02-05T20:03:06.283Z,-55
2018-02-05T20:13:06.380Z,-52
2018-02-05T20:23:06.373Z,-53
2018-02-05T20:33:06.287Z,-54
2018-02-05T20:43:06.630Z,-54
2018-02-05T20:53:06.398Z,-56
2018-02-05T21:03:06.600Z,-55
2018-02-05T21:13:07.600Z,-53
2018-02-05T21:23:06.472Z,-54
2018-02-05T21:33:06.401Z,-53
2018-02-05T21:43:06.514Z,-54
2018-02-05T21:53:06.596Z,-56
2018-02-05T22:03:06.749Z,-55
2018-02-05T22:13:06.342Z,-55
2018-02-05T22:23:06.305Z,-53
2018-02-05T22:33:06.323Z,-55
2018-02-05T22:43:06.381Z,-54
2018-02-05T22:53:06.387Z,-54
2018-02-05T23:03:06.416Z,-55
2018-02-05T23:13:06.369Z,-55
2018-02-05T23:23:06.670Z,-55
2018-02-05T23:33:06.591Z,-53
2018-02-05T23:43:06.522Z,-53
2018-02-05T23:53:06.610Z,-49
